sensor_id;sensor_type;location;lat;lon;timestamp;pressure;altitude;pressure_sealevel;temperature;humidity
6150;BME280;3106;42.670;23.318;2023-12-22T00:01:17;92923.88;;;1.90;100.00
6150;BME280;3106;42.670;23.318;2023-12-22T00:03:44;92931.22;;;1.84;100.00
6150;BME280;3106;42.670;23.318;2023-12-22T00:06:11;92903.94;;;1.68;100.00
6150;BME280;3106;42.670;23.318;2023-12-22T00:08:38;92917.47;;;1.79;100.00
6150;BME280;3106;42.670;23.318;2023-12-22T00:11:05;92917.03;;;1.77;100.00
6150;BME280;3106;42.670;23.318;2023-12-22T00:13:33;92917.66;;;1.74;100.00
6150;BME280;3106;42.670;23.318;2023-12-22T00:16:00;92918.31;;;1.71;100.00
6150;BME280;3106;42.670;23.318;2023-12-22T00:18:27;92900.63;;;1.71;100.00
6150;BME280;3106;42.670;23.318;2023-12-22T00:20:54;92898.56;;;1.65;100.00
6150;BME280;3106;42.670;23.318;2023-12-22T00:23:21;92905.16;;;1.71;100.00
6150;BME280;3106;42.670;23.318;2023-12-22T00:25:48;92902.81;;;1.69;100.00
6150;BME280;3106;42.670;23.318;2023-12-22T00:28:16;92890.88;;;1.72;100.00
6150;BME280;3106;42.670;23.318;2023-12-22T00:30:44;92886.38;;;1.72;100.00
6150;BME280;3106;42.670;23.318;2023-12-22T00:33:10;92873.34;;;1.76;100.00
6150;BME280;3106;42.670;23.318;2023-12-22T00:35:37;92874.09;;;1.76;100.00
6150;BME280;3106;42.670;23.318;2023-12-22T00:38:04;92857.94;;;1.66;100.00
6150;BME280;3106;42.670;23.318;2023-12-22T00:40:31;92858.63;;;1.75;100.00
6150;BME280;3106;42.670;23.318;2023-12-22T00:42:57;92863.75;;;1.71;100.00
6150;BME280;3106;42.670;23.318;2023-12-22T00:45:24;92866.09;;;1.73;100.00
6150;BME280;3106;42.670;23.318;2023-12-22T00:47:52;92860.16;;;1.76;100.00
6150;BME280;3106;42.670;23.318;2023-12-22T00:50:19;92866.97;;;1.77;100.00
6150;BME280;3106;42.670;23.318;2023-12-22T00:52:46;92852.72;;;1.78;100.00
6150;BME280;3106;42.670;23.318;2023-12-22T00:55:13;92838.56;;;1.82;100.00
6150;BME280;3106;42.670;23.318;2023-12-22T00:57:40;92809.41;;;1.55;100.00
6150;BME280;3106;42.670;23.318;2023-12-22T01:00:07;92854.38;;;1.82;100.00
6150;BME280;3106;42.670;23.318;2023-12-22T01:02:38;92846.38;;;1.91;100.00
6150;BME280;3106;42.670;23.318;2023-12-22T01:05:08;92849.56;;;1.96;100.00
6150;BME280;3106;42.670;23.318;2023-12-22T01:07:40;92859.13;;;2.01;100.00
6150;BME280;3106;42.670;23.318;2023-12-22T01:10:07;92870.13;;;2.03;100.00
6150;BME280;3106;42.670;23.318;2023-12-22T01:12:36;92862.75;;;2.08;100.00
6150;BME280;3106;42.670;23.318;2023-12-22T01:15:03;92871.31;;;2.17;100.00
6150;BME280;3106;42.670;23.318;2023-12-22T01:17:30;92866.28;;;2.12;100.00
6150;BME280;3106;42.670;23.318;2023-12-22T01:19:57;92854.88;;;2.20;100.00
6150;BME280;3106;42.670;23.318;2023-12-22T01:22:25;92860.47;;;2.31;100.00
6150;BME280;3106;42.670;23.318;2023-12-22T01:24:51;92853.88;;;2.37;100.00
6150;BME280;3106;42.670;23.318;2023-12-22T01:27:18;92850.28;;;2.29;100.00
6150;BME280;3106;42.670;23.318;2023-12-22T01:29:45;92853.25;;;2.40;100.00
6150;BME280;3106;42.670;23.318;2023-12-22T01:32:12;92861.81;;;2.49;100.00
6150;BME280;3106;42.670;23.318;2023-12-22T01:34:38;92854.00;;;2.52;100.00
6150;BME280;3106;42.670;23.318;2023-12-22T01:37:05;92837.44;;;2.40;100.00
6150;BME280;3106;42.670;23.318;2023-12-22T01:39:33;92838.16;;;2.52;100.00
6150;BME280;3106;42.670;23.318;2023-12-22T01:42:00;92832.91;;;2.52;100.00
6150;BME280;3106;42.670;23.318;2023-12-22T01:44:27;92827.84;;;2.47;100.00
6150;BME280;3106;42.670;23.318;2023-12-22T01:46:55;92818.41;;;2.46;100.00
6150;BME280;3106;42.670;23.318;2023-12-22T01:49:22;92822.03;;;2.54;100.00
6150;BME280;3106;42.670;23.318;2023-12-22T01:51:52;92820.50;;;2.53;100.00
6150;BME280;3106;42.670;23.318;2023-12-22T01:54:19;92765.13;;;2.29;100.00
6150;BME280;3106;42.670;23.318;2023-12-22T01:56:47;92816.34;;;2.40;100.00
6150;BME280;3106;42.670;23.318;2023-12-22T01:59:15;92812.25;;;2.42;100.00
6150;BME280;3106;42.670;23.318;2023-12-22T02:01:42;92801.59;;;2.51;100.00
6150;BME280;3106;42.670;23.318;2023-12-22T02:04:11;92827.06;;;2.35;100.00
6150;BME280;3106;42.670;23.318;2023-12-22T02:06:38;92801.38;;;2.44;100.00
6150;BME280;3106;42.670;23.318;2023-12-22T02:09:05;92808.88;;;2.42;100.00
6150;BME280;3106;42.670;23.318;2023-12-22T02:11:32;92821.03;;;2.46;100.00
6150;BME280;3106;42.670;23.318;2023-12-22T02:14:00;92810.69;;;2.53;100.00
6150;BME280;3106;42.670;23.318;2023-12-22T02:16:32;92800.16;;;2.53;100.00
6150;BME280;3106;42.670;23.318;2023-12-22T02:19:10;92779.75;;;2.38;100.00
6150;BME280;3106;42.670;23.318;2023-12-22T02:21:59;92797.31;;;2.58;100.00
6150;BME280;3106;42.670;23.318;2023-12-22T02:24:28;92797.63;;;2.57;100.00
6150;BME280;3106;42.670;23.318;2023-12-22T02:27:01;92803.53;;;2.66;100.00
6150;BME280;3106;42.670;23.318;2023-12-22T02:29:32;92794.53;;;2.67;100.00
6150;BME280;3106;42.670;23.318;2023-12-22T02:32:02;92789.81;;;2.72;100.00
6150;BME280;3106;42.670;23.318;2023-12-22T02:34:35;92803.44;;;2.74;100.00
6150;BME280;3106;42.670;23.318;2023-12-22T02:37:04;92804.53;;;2.73;100.00
6150;BME280;3106;42.670;23.318;2023-12-22T02:39:37;92783.97;;;2.67;100.00
6150;BME280;3106;42.670;23.318;2023-12-22T02:42:05;92773.44;;;2.67;100.00
6150;BME280;3106;42.670;23.318;2023-12-22T02:44:32;92793.66;;;2.75;100.00
6150;BME280;3106;42.670;23.318;2023-12-22T02:46:59;92795.84;;;2.73;100.00
6150;BME280;3106;42.670;23.318;2023-12-22T02:49:26;92788.38;;;2.75;100.00
6150;BME280;3106;42.670;23.318;2023-12-22T02:51:53;92774.72;;;2.73;100.00
6150;BME280;3106;42.670;23.318;2023-12-22T02:54:20;92776.06;;;2.79;100.00
6150;BME280;3106;42.670;23.318;2023-12-22T02:56:48;92778.59;;;2.75;100.00
6150;BME280;3106;42.670;23.318;2023-12-22T02:59:15;92747.75;;;2.52;100.00
6150;BME280;3106;42.670;23.318;2023-12-22T03:01:43;92758.91;;;2.73;100.00
6150;BME280;3106;42.670;23.318;2023-12-22T03:04:10;92761.34;;;2.78;100.00
6150;BME280;3106;42.670;23.318;2023-12-22T03:06:36;92767.03;;;2.80;100.00
6150;BME280;3106;42.670;23.318;2023-12-22T03:09:03;92742.88;;;2.78;100.00
6150;BME280;3106;42.670;23.318;2023-12-22T03:11:30;92758.09;;;2.84;100.00
6150;BME280;3106;42.670;23.318;2023-12-22T03:13:58;92750.34;;;2.76;100.00
6150;BME280;3106;42.670;23.318;2023-12-22T03:16:25;92738.84;;;2.56;100.00
6150;BME280;3106;42.670;23.318;2023-12-22T03:18:52;92768.81;;;2.76;100.00
6150;BME280;3106;42.670;23.318;2023-12-22T03:21:19;92743.97;;;2.65;100.00
6150;BME280;3106;42.670;23.318;2023-12-22T03:23:47;92756.06;;;2.66;100.00
6150;BME280;3106;42.670;23.318;2023-12-22T03:26:14;92764.63;;;2.75;100.00
6150;BME280;3106;42.670;23.318;2023-12-22T03:28:40;92746.78;;;2.56;100.00
6150;BME280;3106;42.670;23.318;2023-12-22T03:31:08;92768.28;;;2.70;100.00
6150;BME280;3106;42.670;23.318;2023-12-22T03:33:35;92772.09;;;2.73;100.00
6150;BME280;3106;42.670;23.318;2023-12-22T03:36:02;92778.47;;;2.72;100.00
6150;BME280;3106;42.670;23.318;2023-12-22T03:38:29;92775.28;;;2.78;100.00
6150;BME280;3106;42.670;23.318;2023-12-22T03:40:56;92762.88;;;2.79;100.00
6150;BME280;3106;42.670;23.318;2023-12-22T03:43:23;92748.03;;;2.74;100.00
6150;BME280;3106;42.670;23.318;2023-12-22T03:45:49;92764.03;;;2.93;100.00
6150;BME280;3106;42.670;23.318;2023-12-22T03:48:19;92764.69;;;2.90;100.00
6150;BME280;3106;42.670;23.318;2023-12-22T03:50:46;92761.59;;;3.00;100.00
6150;BME280;3106;42.670;23.318;2023-12-22T03:53:13;92755.97;;;3.01;100.00
6150;BME280;3106;42.670;23.318;2023-12-22T03:55:40;92771.56;;;3.06;100.00
6150;BME280;3106;42.670;23.318;2023-12-22T03:58:06;92768.72;;;2.99;100.00
6150;BME280;3106;42.670;23.318;2023-12-22T04:00:33;92737.88;;;2.88;100.00
6150;BME280;3106;42.670;23.318;2023-12-22T04:03:00;92759.63;;;2.97;100.00
6150;BME280;3106;42.670;23.318;2023-12-22T04:05:29;92761.69;;;3.03;100.00
6150;BME280;3106;42.670;23.318;2023-12-22T04:07:55;92738.28;;;2.90;100.00
6150;BME280;3106;42.670;23.318;2023-12-22T04:10:23;92777.19;;;3.05;100.00
6150;BME280;3106;42.670;23.318;2023-12-22T04:12:50;92765.59;;;3.09;100.00
6150;BME280;3106;42.670;23.318;2023-12-22T04:15:17;92764.19;;;3.12;100.00
6150;BME280;3106;42.670;23.318;2023-12-22T04:17:43;92765.03;;;3.16;100.00
6150;BME280;3106;42.670;23.318;2023-12-22T04:20:10;92763.94;;;3.17;100.00
6150;BME280;3106;42.670;23.318;2023-12-22T04:22:40;92766.25;;;3.18;100.00
6150;BME280;3106;42.670;23.318;2023-12-22T04:25:07;92767.88;;;3.23;100.00
6150;BME280;3106;42.670;23.318;2023-12-22T04:27:34;92749.31;;;3.19;100.00
6150;BME280;3106;42.670;23.318;2023-12-22T04:30:03;92752.31;;;3.33;100.00
6150;BME280;3106;42.670;23.318;2023-12-22T04:32:30;92752.44;;;3.37;100.00
6150;BME280;3106;42.670;23.318;2023-12-22T04:34:57;92746.78;;;3.38;100.00
6150;BME280;3106;42.670;23.318;2023-12-22T04:37:23;92749.44;;;3.38;100.00
6150;BME280;3106;42.670;23.318;2023-12-22T04:39:52;92726.84;;;3.25;100.00
6150;BME280;3106;42.670;23.318;2023-12-22T04:42:20;92743.41;;;3.38;100.00
6150;BME280;3106;42.670;23.318;2023-12-22T04:44:47;92740.75;;;3.38;100.00
6150;BME280;3106;42.670;23.318;2023-12-22T04:47:14;92737.00;;;3.39;100.00
6150;BME280;3106;42.670;23.318;2023-12-22T04:49:41;92741.88;;;3.37;100.00
6150;BME280;3106;42.670;23.318;2023-12-22T04:52:08;92716.38;;;3.29;100.00
6150;BME280;3106;42.670;23.318;2023-12-22T04:54:35;92731.47;;;3.44;100.00
6150;BME280;3106;42.670;23.318;2023-12-22T04:57:03;92733.34;;;3.43;100.00
6150;BME280;3106;42.670;23.318;2023-12-22T04:59:30;92740.41;;;3.39;100.00
6150;BME280;3106;42.670;23.318;2023-12-22T05:01:57;92736.16;;;3.35;100.00
6150;BME280;3106;42.670;23.318;2023-12-22T05:04:24;92723.78;;;3.23;100.00
6150;BME280;3106;42.670;23.318;2023-12-22T05:06:50;92719.06;;;3.17;100.00
6150;BME280;3106;42.670;23.318;2023-12-22T05:09:17;92689.63;;;2.88;100.00
6150;BME280;3106;42.670;23.318;2023-12-22T05:11:44;92718.97;;;3.13;100.00
6150;BME280;3106;42.670;23.318;2023-12-22T05:14:13;92719.72;;;3.14;100.00
6150;BME280;3106;42.670;23.318;2023-12-22T05:16:41;92709.84;;;3.11;100.00
6150;BME280;3106;42.670;23.318;2023-12-22T05:19:14;92718.97;;;3.13;100.00
6150;BME280;3106;42.670;23.318;2023-12-22T05:21:41;92645.75;;;2.83;100.00
6150;BME280;3106;42.670;23.318;2023-12-22T05:24:08;92712.34;;;3.19;100.00
6150;BME280;3106;42.670;23.318;2023-12-22T05:26:34;92689.91;;;2.98;100.00
6150;BME280;3106;42.670;23.318;2023-12-22T05:29:01;92718.56;;;3.27;100.00
6150;BME280;3106;42.670;23.318;2023-12-22T05:31:29;92711.75;;;3.26;100.00
6150;BME280;3106;42.670;23.318;2023-12-22T05:33:58;92717.03;;;3.26;100.00
6150;BME280;3106;42.670;23.318;2023-12-22T05:36:26;92734.22;;;3.20;100.00
6150;BME280;3106;42.670;23.318;2023-12-22T05:38:52;92720.09;;;3.28;100.00
6150;BME280;3106;42.670;23.318;2023-12-22T05:41:20;92733.09;;;3.33;100.00
6150;BME280;3106;42.670;23.318;2023-12-22T05:43:46;92707.22;;;3.11;100.00
6150;BME280;3106;42.670;23.318;2023-12-22T05:46:13;92727.25;;;3.27;100.00
6150;BME280;3106;42.670;23.318;2023-12-22T05:48:41;92707.66;;;3.13;100.00
6150;BME280;3106;42.670;23.318;2023-12-22T05:51:09;92710.56;;;3.23;100.00
6150;BME280;3106;42.670;23.318;2023-12-22T05:53:42;92726.06;;;3.25;100.00
6150;BME280;3106;42.670;23.318;2023-12-22T05:56:26;92727.59;;;3.26;100.00
6150;BME280;3106;42.670;23.318;2023-12-22T05:58:53;92722.00;;;3.27;100.00
6150;BME280;3106;42.670;23.318;2023-12-22T06:01:20;92716.38;;;3.29;100.00
6150;BME280;3106;42.670;23.318;2023-12-22T06:03:48;92724.63;;;3.27;100.00
6150;BME280;3106;42.670;23.318;2023-12-22T06:06:15;92713.97;;;3.24;100.00
6150;BME280;3106;42.670;23.318;2023-12-22T06:08:42;92687.28;;;2.98;100.00
6150;BME280;3106;42.670;23.318;2023-12-22T06:11:08;92722.56;;;3.21;100.00
6150;BME280;3106;42.670;23.318;2023-12-22T06:13:35;92713.47;;;3.18;100.00
6150;BME280;3106;42.670;23.318;2023-12-22T06:16:02;92725.06;;;3.29;100.00
6150;BME280;3106;42.670;23.318;2023-12-22T06:18:27;92718.00;;;3.33;100.00
6150;BME280;3106;42.670;23.318;2023-12-22T06:20:55;92730.19;;;3.38;100.00
6150;BME280;3106;42.670;23.318;2023-12-22T06:23:22;92706.03;;;3.24;100.00
6150;BME280;3106;42.670;23.318;2023-12-22T06:25:49;92731.22;;;3.49;100.00
6150;BME280;3106;42.670;23.318;2023-12-22T06:28:16;92742.22;;;3.51;100.00
6150;BME280;3106;42.670;23.318;2023-12-22T06:30:43;92711.84;;;3.29;100.00
6150;BME280;3106;42.670;23.318;2023-12-22T06:33:12;92735.81;;;3.52;100.00
6150;BME280;3106;42.670;23.318;2023-12-22T06:35:39;92739.25;;;3.52;100.00
6150;BME280;3106;42.670;23.318;2023-12-22T06:38:08;92741.63;;;3.57;100.00
6150;BME280;3106;42.670;23.318;2023-12-22T06:40:37;92741.22;;;3.55;100.00
6150;BME280;3106;42.670;23.318;2023-12-22T06:43:03;92742.06;;;3.59;100.00
6150;BME280;3106;42.670;23.318;2023-12-22T06:45:30;92743.19;;;3.58;100.00
6150;BME280;3106;42.670;23.318;2023-12-22T06:47:57;92742.66;;;3.68;100.00
6150;BME280;3106;42.670;23.318;2023-12-22T06:50:24;92749.22;;;3.74;100.00
6150;BME280;3106;42.670;23.318;2023-12-22T06:52:50;92740.19;;;3.75;100.00
6150;BME280;3106;42.670;23.318;2023-12-22T06:55:19;92749.59;;;3.88;100.00
6150;BME280;3106;42.670;23.318;2023-12-22T06:57:52;92755.75;;;3.92;100.00
6150;BME280;3106;42.670;23.318;2023-12-22T07:00:20;92737.22;;;3.92;100.00
6150;BME280;3106;42.670;23.318;2023-12-22T07:02:47;92742.31;;;4.01;100.00
6150;BME280;3106;42.670;23.318;2023-12-22T07:05:33;92713.78;;;3.75;100.00
6150;BME280;3106;42.670;23.318;2023-12-22T07:08:03;92752.56;;;4.02;100.00
6150;BME280;3106;42.670;23.318;2023-12-22T07:10:31;92750.78;;;4.06;100.00
6150;BME280;3106;42.670;23.318;2023-12-22T07:12:58;92747.81;;;4.08;100.00
6150;BME280;3106;42.670;23.318;2023-12-22T07:15:26;92731.69;;;3.97;100.00
6150;BME280;3106;42.670;23.318;2023-12-22T07:17:54;92731.09;;;4.04;100.00
6150;BME280;3106;42.670;23.318;2023-12-22T07:20:21;92757.28;;;4.24;100.00
6150;BME280;3106;42.670;23.318;2023-12-22T07:22:47;92759.22;;;4.27;100.00
6150;BME280;3106;42.670;23.318;2023-12-22T07:25:15;92744.03;;;4.24;100.00
6150;BME280;3106;42.670;23.318;2023-12-22T07:27:45;92766.97;;;4.36;100.00
6150;BME280;3106;42.670;23.318;2023-12-22T07:30:13;92729.31;;;4.08;100.00
6150;BME280;3106;42.670;23.318;2023-12-22T07:32:43;92771.91;;;4.37;100.00
6150;BME280;3106;42.670;23.318;2023-12-22T07:35:13;92759.72;;;4.33;100.00
6150;BME280;3106;42.670;23.318;2023-12-22T07:37:42;92770.13;;;4.41;100.00
6150;BME280;3106;42.670;23.318;2023-12-22T07:40:10;92759.81;;;4.36;100.00
6150;BME280;3106;42.670;23.318;2023-12-22T07:42:38;92751.09;;;4.36;100.00
6150;BME280;3106;42.670;23.318;2023-12-22T07:45:08;92730.97;;;4.31;100.00
6150;BME280;3106;42.670;23.318;2023-12-22T07:47:36;92711.69;;;4.15;100.00
6150;BME280;3106;42.670;23.318;2023-12-22T07:50:04;92781.47;;;4.57;100.00
6150;BME280;3106;42.670;23.318;2023-12-22T07:52:35;92772.84;;;4.60;100.00
6150;BME280;3106;42.670;23.318;2023-12-22T07:55:06;92706.19;;;4.05;100.00
6150;BME280;3106;42.670;23.318;2023-12-22T07:57:53;92783.19;;;4.49;100.00
6150;BME280;3106;42.670;23.318;2023-12-22T08:00:21;92750.66;;;4.34;100.00
6150;BME280;3106;42.670;23.318;2023-12-22T08:02:50;92771.22;;;4.40;100.00
6150;BME280;3106;42.670;23.318;2023-12-22T08:05:18;92797.84;;;4.47;100.00
6150;BME280;3106;42.670;23.318;2023-12-22T08:07:45;92784.13;;;4.42;100.00
6150;BME280;3106;42.670;23.318;2023-12-22T08:10:12;92804.59;;;4.60;100.00
6150;BME280;3106;42.670;23.318;2023-12-22T08:12:38;92812.44;;;4.56;100.00
6150;BME280;3106;42.670;23.318;2023-12-22T08:15:06;92764.25;;;4.17;100.00
6150;BME280;3106;42.670;23.318;2023-12-22T08:17:35;92807.41;;;4.51;100.00
6150;BME280;3106;42.670;23.318;2023-12-22T08:20:03;92791.13;;;4.34;100.00
6150;BME280;3106;42.670;23.318;2023-12-22T08:22:31;92832.41;;;4.54;100.00
6150;BME280;3106;42.670;23.318;2023-12-22T08:25:01;92815.03;;;4.38;100.00
6150;BME280;3106;42.670;23.318;2023-12-22T08:27:29;92815.69;;;4.35;100.00
6150;BME280;3106;42.670;23.318;2023-12-22T08:30:02;92831.97;;;4.52;100.00
6150;BME280;3106;42.670;23.318;2023-12-22T08:32:30;92834.38;;;4.57;100.00
6150;BME280;3106;42.670;23.318;2023-12-22T08:34:59;92783.09;;;4.31;100.00
6150;BME280;3106;42.670;23.318;2023-12-22T08:37:27;92828.22;;;4.68;100.00
6150;BME280;3106;42.670;23.318;2023-12-22T08:39:57;92825.97;;;4.70;100.00
6150;BME280;3106;42.670;23.318;2023-12-22T08:42:26;92823.69;;;4.69;100.00
6150;BME280;3106;42.670;23.318;2023-12-22T08:44:53;92819.50;;;4.68;100.00
6150;BME280;3106;42.670;23.318;2023-12-22T08:47:21;92833.84;;;4.82;100.00
6150;BME280;3106;42.670;23.318;2023-12-22T08:49:48;92767.47;;;4.41;100.00
6150;BME280;3106;42.670;23.318;2023-12-22T08:52:23;92833.63;;;4.91;100.00
6150;BME280;3106;42.670;23.318;2023-12-22T08:54:54;92829.22;;;4.95;100.00
6150;BME280;3106;42.670;23.318;2023-12-22T08:57:21;92803.19;;;4.81;100.00
6150;BME280;3106;42.670;23.318;2023-12-22T08:59:48;92829.25;;;4.98;100.00
6150;BME280;3106;42.670;23.318;2023-12-22T09:02:18;92746.47;;;4.48;100.00
6150;BME280;3106;42.670;23.318;2023-12-22T09:04:49;92804.88;;;4.89;100.00
6150;BME280;3106;42.670;23.318;2023-12-22T09:07:23;92814.75;;;4.92;100.00
6150;BME280;3106;42.670;23.318;2023-12-22T09:09:50;92803.63;;;4.68;100.00
6150;BME280;3106;42.670;23.318;2023-12-22T09:12:19;92848.47;;;5.11;100.00
6150;BME280;3106;42.670;23.318;2023-12-22T09:14:46;92751.75;;;4.48;100.00
6150;BME280;3106;42.670;23.318;2023-12-22T09:17:14;92850.94;;;5.19;100.00
6150;BME280;3106;42.670;23.318;2023-12-22T09:19:41;92858.31;;;5.10;100.00
6150;BME280;3106;42.670;23.318;2023-12-22T09:22:08;92805.13;;;4.84;100.00
6150;BME280;3106;42.670;23.318;2023-12-22T09:24:42;92840.69;;;5.02;100.00
6150;BME280;3106;42.670;23.318;2023-12-22T09:27:09;92859.44;;;5.28;100.00
6150;BME280;3106;42.670;23.318;2023-12-22T09:29:36;92858.81;;;5.35;100.00
6150;BME280;3106;42.670;23.318;2023-12-22T09:32:17;92860.41;;;5.39;100.00
6150;BME280;3106;42.670;23.318;2023-12-22T09:34:44;92857.66;;;5.51;100.00
6150;BME280;3106;42.670;23.318;2023-12-22T09:37:14;92854.72;;;5.56;100.00
6150;BME280;3106;42.670;23.318;2023-12-22T09:39:47;92851.44;;;5.63;100.00
6150;BME280;3106;42.670;23.318;2023-12-22T09:42:20;92850.63;;;5.78;100.00
6150;BME280;3106;42.670;23.318;2023-12-22T09:44:53;92835.47;;;5.78;100.00
6150;BME280;3106;42.670;23.318;2023-12-22T09:47:21;92838.63;;;5.84;100.00
6150;BME280;3106;42.670;23.318;2023-12-22T09:49:49;92838.00;;;5.90;100.00
6150;BME280;3106;42.670;23.318;2023-12-22T09:52:17;92826.00;;;5.96;100.00
6150;BME280;3106;42.670;23.318;2023-12-22T09:54:47;92836.59;;;5.96;100.00
6150;BME280;3106;42.670;23.318;2023-12-22T09:57:15;92821.72;;;5.92;100.00
6150;BME280;3106;42.670;23.318;2023-12-22T09:59:42;92833.44;;;6.09;100.00
6150;BME280;3106;42.670;23.318;2023-12-22T10:02:11;92804.00;;;5.95;100.00
6150;BME280;3106;42.670;23.318;2023-12-22T10:04:39;92807.91;;;6.01;100.00
6150;BME280;3106;42.670;23.318;2023-12-22T10:07:08;92834.38;;;6.20;100.00
6150;BME280;3106;42.670;23.318;2023-12-22T10:09:36;92802.53;;;6.20;100.00
6150;BME280;3106;42.670;23.318;2023-12-22T10:12:08;92827.13;;;6.40;100.00
6150;BME280;3106;42.670;23.318;2023-12-22T10:14:36;92829.38;;;6.38;100.00
6150;BME280;3106;42.670;23.318;2023-12-22T10:17:04;92823.03;;;6.20;100.00
6150;BME280;3106;42.670;23.318;2023-12-22T10:19:31;92813.03;;;6.13;100.00
6150;BME280;3106;42.670;23.318;2023-12-22T10:21:58;92796.81;;;6.18;100.00
6150;BME280;3106;42.670;23.318;2023-12-22T10:24:37;92780.13;;;6.18;100.00
6150;BME280;3106;42.670;23.318;2023-12-22T10:27:08;92790.69;;;6.14;100.00
6150;BME280;3106;42.670;23.318;2023-12-22T10:29:35;92713.25;;;5.64;100.00
6150;BME280;3106;42.670;23.318;2023-12-22T10:32:06;92774.00;;;6.14;100.00
6150;BME280;3106;42.670;23.318;2023-12-22T10:34:36;92739.63;;;5.98;100.00
6150;BME280;3106;42.670;23.318;2023-12-22T10:37:04;92775.00;;;6.28;100.00
6150;BME280;3106;42.670;23.318;2023-12-22T10:39:32;92775.81;;;6.32;100.00
6150;BME280;3106;42.670;23.318;2023-12-22T10:42:00;92764.91;;;6.37;100.00
6150;BME280;3106;42.670;23.318;2023-12-22T10:44:30;92687.72;;;5.97;100.00
6150;BME280;3106;42.670;23.318;2023-12-22T10:46:59;92757.88;;;6.74;100.00
6150;BME280;3106;42.670;23.318;2023-12-22T10:49:28;92734.13;;;6.85;100.00
6150;BME280;3106;42.670;23.318;2023-12-22T10:51:57;92723.31;;;6.97;100.00
6150;BME280;3106;42.670;23.318;2023-12-22T10:54:23;92731.25;;;7.26;100.00
6150;BME280;3106;42.670;23.318;2023-12-22T10:56:57;92731.19;;;7.19;100.00
6150;BME280;3106;42.670;23.318;2023-12-22T10:59:29;92704.34;;;6.98;100.00
6150;BME280;3106;42.670;23.318;2023-12-22T11:01:57;92718.25;;;7.18;100.00
6150;BME280;3106;42.670;23.318;2023-12-22T11:04:29;92668.25;;;6.94;100.00
6150;BME280;3106;42.670;23.318;2023-12-22T11:06:59;92739.72;;;7.35;100.00
6150;BME280;3106;42.670;23.318;2023-12-22T11:09:37;92731.06;;;7.42;100.00
6150;BME280;3106;42.670;23.318;2023-12-22T11:12:08;92722.63;;;7.36;100.00
6150;BME280;3106;42.670;23.318;2023-12-22T11:14:46;92649.84;;;7.11;100.00
6150;BME280;3106;42.670;23.318;2023-12-22T11:17:19;92656.91;;;7.33;100.00
6150;BME280;3106;42.670;23.318;2023-12-22T11:19:49;92639.09;;;7.37;100.00
6150;BME280;3106;42.670;23.318;2023-12-22T11:22:17;92698.50;;;7.88;100.00
6150;BME280;3106;42.670;23.318;2023-12-22T11:24:49;92665.44;;;7.89;100.00
6150;BME280;3106;42.670;23.318;2023-12-22T11:27:18;92712.59;;;8.32;100.00
6150;BME280;3106;42.670;23.318;2023-12-22T11:29:49;92550.19;;;7.31;100.00
6150;BME280;3106;42.670;23.318;2023-12-22T11:32:24;92705.97;;;8.62;98.07
6150;BME280;3106;42.670;23.318;2023-12-22T11:34:57;92705.50;;;8.50;97.66
6150;BME280;3106;42.670;23.318;2023-12-22T11:37:31;92662.75;;;8.32;97.65
6150;BME280;3106;42.670;23.318;2023-12-22T11:39:59;92640.66;;;8.25;94.13
6150;BME280;3106;42.670;23.318;2023-12-22T11:42:29;92632.09;;;8.02;92.21
6150;BME280;3106;42.670;23.318;2023-12-22T11:44:58;92692.38;;;8.24;93.46
6150;BME280;3106;42.670;23.318;2023-12-22T11:47:25;92758.09;;;8.63;94.27
6150;BME280;3106;42.670;23.318;2023-12-22T11:49:53;92755.38;;;8.56;94.25
6150;BME280;3106;42.670;23.318;2023-12-22T11:52:26;92748.34;;;8.31;93.71
6150;BME280;3106;42.670;23.318;2023-12-22T11:54:55;92749.03;;;8.24;93.17
6150;BME280;3106;42.670;23.318;2023-12-22T11:57:32;92755.13;;;8.25;93.19
6150;BME280;3106;42.670;23.318;2023-12-22T12:00:08;92748.28;;;8.27;92.83
6150;BME280;3106;42.670;23.318;2023-12-22T12:02:39;92757.47;;;8.30;93.67
6150;BME280;3106;42.670;23.318;2023-12-22T12:05:08;92675.53;;;7.73;93.00
6150;BME280;3106;42.670;23.318;2023-12-22T12:07:39;92748.81;;;8.43;93.49
6150;BME280;3106;42.670;23.318;2023-12-22T12:10:06;92739.22;;;8.32;92.13
6150;BME280;3106;42.670;23.318;2023-12-22T12:12:34;92749.88;;;8.35;91.97
6150;BME280;3106;42.670;23.318;2023-12-22T12:15:10;92729.88;;;8.12;91.09
6150;BME280;3106;42.670;23.318;2023-12-22T12:17:40;92760.13;;;8.30;91.24
6150;BME280;3106;42.670;23.318;2023-12-22T12:20:09;92753.66;;;8.31;91.79
6150;BME280;3106;42.670;23.318;2023-12-22T12:22:37;92714.63;;;8.05;91.14
6150;BME280;3106;42.670;23.318;2023-12-22T12:25:08;92733.00;;;8.17;90.08
6150;BME280;3106;42.670;23.318;2023-12-22T12:27:36;92726.88;;;8.13;89.90
6150;BME280;3106;42.670;23.318;2023-12-22T12:30:13;92722.97;;;8.04;90.01
6150;BME280;3106;42.670;23.318;2023-12-22T12:32:44;92718.72;;;7.99;90.77
6150;BME280;3106;42.670;23.318;2023-12-22T12:35:14;92706.53;;;7.95;90.26
6150;BME280;3106;42.670;23.318;2023-12-22T12:37:44;92706.16;;;7.96;89.68
6150;BME280;3106;42.670;23.318;2023-12-22T12:40:15;92695.06;;;7.87;90.23
6150;BME280;3106;42.670;23.318;2023-12-22T12:42:46;92685.13;;;7.81;89.22
6150;BME280;3106;42.670;23.318;2023-12-22T12:45:15;92689.00;;;7.87;88.85
6150;BME280;3106;42.670;23.318;2023-12-22T12:47:44;92676.06;;;7.85;88.70
6150;BME280;3106;42.670;23.318;2023-12-22T12:50:21;92686.34;;;7.87;89.34
6150;BME280;3106;42.670;23.318;2023-12-22T12:52:51;92693.59;;;7.90;88.87
6150;BME280;3106;42.670;23.318;2023-12-22T12:55:20;92691.25;;;7.85;88.49
6150;BME280;3106;42.670;23.318;2023-12-22T12:57:48;92712.91;;;7.83;87.47
6150;BME280;3106;42.670;23.318;2023-12-22T13:00:24;92715.13;;;7.78;87.19
6150;BME280;3106;42.670;23.318;2023-12-22T13:02:53;92712.44;;;7.78;87.24
6150;BME280;3106;42.670;23.318;2023-12-22T13:05:22;92738.31;;;7.77;86.52
6150;BME280;3106;42.670;23.318;2023-12-22T13:07:49;92737.56;;;7.80;85.59
6150;BME280;3106;42.670;23.318;2023-12-22T13:10:24;92740.69;;;7.86;84.76
6150;BME280;3106;42.670;23.318;2023-12-22T13:12:55;92733.09;;;7.88;84.18
6150;BME280;3106;42.670;23.318;2023-12-22T13:15:25;92732.66;;;7.82;84.29
6150;BME280;3106;42.670;23.318;2023-12-22T13:17:54;92732.19;;;7.77;85.04
6150;BME280;3106;42.670;23.318;2023-12-22T13:20:22;92739.78;;;7.75;84.28